Virginia Dale, Colorado
Current Conditions -  °F | °C
As of 5:56 AM on Thursday 27 Nov 2014 (Local Time) from KFEW Reporting Station
Clear Clear  
Wind Chill: 36°   Ceiling: Unl
Heat Index: 44°   Visibility: 10mi
Dew Point: 18°   Wind: 20mph
Humidity: 34%   Direction: 280°W
Pressure: 30.13"   Gusts: 29mph
Location:  40.8645°N, 105.398°W
Report Text: KFEW 271256Z AUTO 28017G25KT 10SM CLR 07/M08 A3013 RMK AO2 PK WND 28027/10 SLP207 T00681080
Loading
Personal Weather Stations






























Interactive Weather Map New forecast layout! Learn more

10-Day Weather Forecast

Advertisements
Track Severe Weather on mobile